createdAt,value
2022-11-23T00:00:45.989Z,8.60
2022-11-23T00:03:15.931Z,8.60
2022-11-23T00:05:43.775Z,8.60
2022-11-23T00:08:11.603Z,8.60
2022-11-23T00:10:39.569Z,8.60
2022-11-23T00:13:07.410Z,8.60
2022-11-23T00:15:35.552Z,8.60
2022-11-23T00:18:03.693Z,8.60
2022-11-23T00:20:32.905Z,8.60
2022-11-23T00:23:00.761Z,8.60
2022-11-23T00:25:29.584Z,8.60
2022-11-23T00:27:57.470Z,8.70
2022-11-23T00:30:25.329Z,8.70
2022-11-23T00:32:53.175Z,8.70
2022-11-23T00:35:21.068Z,8.70
2022-11-23T00:37:50.522Z,8.70
2022-11-23T00:40:18.609Z,8.70
2022-11-23T00:42:46.618Z,8.70
2022-11-23T00:45:14.547Z,8.70
2022-11-23T00:47:42.382Z,8.70
2022-11-23T00:50:10.866Z,8.70
2022-11-23T00:52:38.772Z,8.70
2022-11-23T00:55:09.041Z,8.70
2022-11-23T00:57:36.905Z,8.70
2022-11-23T01:00:06.025Z,8.70
2022-11-23T01:02:36.100Z,8.70
2022-11-23T01:05:04.095Z,8.70
2022-11-23T01:07:32.271Z,8.70
2022-11-23T01:10:00.235Z,8.80
2022-11-23T01:12:30.804Z,8.70
2022-11-23T01:14:58.738Z,8.80
2022-11-23T01:17:26.595Z,8.80
2022-11-23T01:19:54.429Z,8.70
2022-11-23T01:22:22.926Z,8.70
2022-11-23T01:24:50.919Z,8.70
2022-11-23T01:27:18.945Z,8.70
2022-11-23T01:29:48.190Z,8.70
2022-11-23T01:32:16.049Z,8.70
2022-11-23T01:34:43.863Z,8.80
2022-11-23T01:37:11.691Z,8.80
2022-11-23T01:39:39.573Z,8.80
2022-11-23T01:42:08.606Z,8.80
2022-11-23T01:44:38.505Z,8.80
2022-11-23T01:47:09.105Z,8.80
2022-11-23T01:49:40.407Z,8.80
2022-11-23T01:52:12.395Z,8.80
2022-11-23T01:54:43.524Z,8.80
2022-11-23T01:57:18.604Z,8.90
2022-11-23T01:59:47.560Z,8.80
2022-11-23T02:02:17.461Z,8.80
2022-11-23T02:04:48.754Z,8.80
2022-11-23T02:07:18.135Z,8.80
2022-11-23T02:09:47.616Z,8.80
2022-11-23T02:12:15.914Z,8.80
2022-11-23T02:14:44.721Z,8.80
2022-11-23T02:17:12.867Z,8.80
2022-11-23T02:19:53.025Z,8.70
2022-11-23T02:22:29.093Z,8.70
2022-11-23T02:24:57.481Z,8.70
2022-11-23T02:27:27.952Z,8.70
2022-11-23T02:29:56.949Z,8.70
2022-11-23T02:32:26.464Z,8.70
2022-11-23T02:34:54.314Z,8.70
2022-11-23T02:37:22.184Z,8.70
2022-11-23T02:39:52.109Z,8.70
2022-11-23T02:42:20.339Z,8.70
2022-11-23T02:44:55.399Z,8.70
2022-11-23T02:47:23.327Z,8.70
2022-11-23T02:49:51.374Z,8.70
2022-11-23T02:52:19.854Z,8.70
2022-11-23T02:54:48.256Z,8.70
2022-11-23T02:57:16.129Z,8.70
2022-11-23T02:59:44.013Z,8.70
2022-11-23T03:02:13.230Z,8.70
2022-11-23T03:04:41.088Z,8.70
2022-11-23T03:07:09.102Z,8.70
2022-11-23T03:09:37.034Z,8.70
2022-11-23T03:12:05.263Z,8.70
2022-11-23T03:14:33.209Z,8.70
2022-11-23T03:17:01.154Z,8.60
2022-11-23T03:19:30.761Z,8.70
2022-11-23T03:21:58.911Z,8.70
2022-11-23T03:24:26.813Z,8.60
2022-11-23T03:26:54.720Z,8.70
2022-11-23T03:29:26.235Z,8.60
2022-11-23T03:31:54.199Z,8.60
2022-11-23T03:34:22.040Z,8.60
2022-11-23T03:36:51.362Z,8.60
2022-11-23T03:39:19.617Z,8.60
2022-11-23T03:41:47.505Z,8.60
2022-11-23T03:44:15.361Z,8.60
2022-11-23T03:46:43.217Z,8.60
2022-11-23T03:49:11.119Z,8.60
2022-11-23T03:51:38.974Z,8.60
2022-11-23T03:54:08.332Z,8.60
2022-11-23T03:56:36.247Z,8.60
2022-11-23T03:59:04.102Z,8.60
2022-11-23T04:01:32.071Z,8.60
2022-11-23T04:04:00.047Z,8.60
2022-11-23T04:06:27.983Z,8.60
2022-11-23T04:09:01.551Z,8.60
2022-11-23T04:11:31.379Z,8.60
2022-11-23T04:13:59.238Z,8.60
2022-11-23T04:16:27.199Z,8.60
2022-11-23T04:18:55.130Z,8.60
2022-11-23T04:21:23.047Z,8.60
2022-11-23T04:23:51.216Z,8.60
2022-11-23T04:26:19.165Z,8.60
2022-11-23T04:28:48.422Z,8.60
2022-11-23T04:31:16.232Z,8.60
2022-11-23T04:33:44.155Z,8.60
2022-11-23T04:36:12.140Z,8.60
2022-11-23T04:38:40.032Z,8.60
2022-11-23T04:41:07.873Z,8.60
2022-11-23T04:43:35.786Z,8.60
2022-11-23T04:46:05.096Z,8.60
2022-11-23T04:48:33.034Z,8.60
2022-11-23T04:51:01.039Z,8.60
2022-11-23T04:53:28.904Z,8.60
2022-11-23T04:55:56.855Z,8.60
2022-11-23T04:58:26.012Z,8.60
2022-11-23T05:00:54.808Z,8.60
2022-11-23T05:03:24.081Z,8.60
2022-11-23T05:05:52.041Z,8.60
2022-11-23T05:08:19.892Z,8.60
2022-11-23T05:10:47.742Z,8.60
2022-11-23T05:13:15.820Z,8.60
2022-11-23T05:15:43.734Z,8.60
2022-11-23T05:18:12.903Z,8.60
2022-11-23T05:20:42.355Z,8.60
2022-11-23T05:23:11.456Z,8.60
2022-11-23T05:25:39.449Z,8.60
2022-11-23T05:28:30.210Z,8.70
2022-11-23T05:30:55.366Z,8.70
2022-11-23T05:33:23.218Z,8.60
2022-11-23T05:35:52.411Z,8.60
2022-11-23T05:38:20.287Z,8.60
2022-11-23T05:40:48.255Z,8.50
2022-11-23T05:43:16.155Z,8.50
2022-11-23T05:45:43.966Z,8.50
2022-11-23T05:48:11.937Z,8.50
2022-11-23T05:50:40.000Z,8.40
2022-11-23T05:53:10.095Z,8.40
2022-11-23T05:55:38.093Z,8.40
2022-11-23T05:58:05.980Z,8.40
2022-11-23T06:00:33.914Z,8.40
2022-11-23T06:03:02.101Z,8.40
2022-11-23T06:05:31.035Z,8.40
2022-11-23T06:07:59.039Z,8.40
2022-11-23T06:10:28.455Z,8.40
2022-11-23T06:12:56.293Z,8.40
2022-11-23T06:15:24.154Z,8.50
2022-11-23T06:17:52.035Z,8.50
2022-11-23T06:20:20.183Z,8.50
2022-11-23T06:22:53.135Z,8.50
2022-11-23T06:25:21.021Z,8.50
2022-11-23T06:27:55.804Z,8.50
2022-11-23T06:30:23.698Z,8.50
2022-11-23T06:32:51.628Z,8.50
2022-11-23T06:35:19.917Z,8.40
2022-11-23T06:37:49.284Z,8.40
2022-11-23T06:40:17.493Z,8.40
2022-11-23T06:42:45.402Z,8.30
2022-11-23T06:45:14.701Z,8.30
2022-11-23T06:47:42.543Z,8.30
2022-11-23T06:50:10.759Z,8.30
2022-11-23T06:52:38.601Z,8.30
2022-11-23T06:55:06.945Z,8.30
2022-11-23T06:57:34.764Z,8.20
2022-11-23T07:00:02.705Z,8.20
2022-11-23T07:02:31.936Z,8.30
2022-11-23T07:04:59.819Z,8.20
2022-11-23T07:07:28.279Z,8.20
2022-11-23T07:09:57.635Z,8.20
2022-11-23T07:12:25.905Z,8.30
2022-11-23T07:14:53.752Z,8.20
2022-11-23T07:17:21.593Z,8.20
2022-11-23T07:19:50.795Z,8.20
2022-11-23T07:22:18.710Z,8.30
2022-11-23T07:24:47.105Z,8.30
2022-11-23T07:27:15.051Z,8.30
2022-11-23T07:29:42.854Z,8.20
2022-11-23T07:32:10.784Z,8.20
2022-11-23T07:34:38.718Z,8.20
2022-11-23T07:37:08.623Z,8.20
2022-11-23T07:39:56.471Z,8.20
2022-11-23T07:42:33.608Z,8.20
2022-11-23T07:45:03.891Z,8.30
2022-11-23T07:47:31.899Z,8.30
2022-11-23T07:49:59.751Z,8.30
2022-11-23T07:52:29.066Z,8.20
2022-11-23T07:54:57.017Z,8.20
2022-11-23T07:57:24.946Z,8.20
2022-11-23T07:59:52.875Z,8.20
2022-11-23T08:02:21.453Z,8.20
2022-11-23T08:04:49.451Z,8.20
2022-11-23T08:07:17.326Z,8.20
2022-11-23T08:09:46.906Z,8.30
2022-11-23T08:12:14.757Z,8.30
2022-11-23T08:14:42.680Z,8.30
2022-11-23T08:17:10.913Z,8.30
2022-11-23T08:19:38.865Z,8.40
2022-11-23T08:22:06.739Z,8.40
2022-11-23T08:24:35.019Z,8.40
2022-11-23T08:27:04.520Z,8.40
2022-11-23T08:29:32.399Z,8.40
2022-11-23T08:32:00.265Z,8.40
2022-11-23T08:34:28.351Z,8.40
2022-11-23T08:36:57.765Z,8.40
2022-11-23T08:39:25.610Z,8.40
2022-11-23T08:41:53.525Z,8.40
2022-11-23T08:44:22.835Z,8.40
2022-11-23T08:46:50.830Z,8.40
2022-11-23T08:49:18.791Z,8.40
2022-11-23T08:51:50.112Z,8.40
2022-11-23T08:54:18.334Z,8.40
2022-11-23T08:56:46.194Z,8.40
2022-11-23T08:59:14.181Z,8.50
2022-11-23T09:01:43.431Z,8.50
2022-11-23T09:04:13.942Z,8.50
2022-11-23T09:06:44.343Z,8.50
2022-11-23T09:09:12.167Z,8.50
2022-11-23T09:11:40.139Z,8.50
2022-11-23T09:14:07.973Z,8.50
2022-11-23T09:16:35.834Z,8.50
2022-11-23T09:19:06.404Z,8.50
2022-11-23T09:21:35.723Z,8.60
2022-11-23T09:24:03.669Z,8.60
2022-11-23T09:26:33.813Z,8.60
2022-11-23T09:29:01.921Z,8.60
2022-11-23T09:31:30.230Z,8.60
2022-11-23T09:33:58.254Z,8.50
2022-11-23T09:36:27.491Z,8.60
2022-11-23T09:38:57.036Z,8.60
2022-11-23T09:41:48.795Z,8.60
2022-11-23T09:44:24.752Z,8.60
2022-11-23T09:47:09.130Z,8.70
2022-11-23T09:49:45.901Z,8.70
2022-11-23T09:52:19.339Z,8.70
2022-11-23T09:54:49.172Z,8.70
2022-11-23T09:57:22.722Z,8.70
2022-11-23T09:59:54.476Z,8.70
2022-11-23T10:02:24.909Z,8.70
2022-11-23T10:04:54.608Z,8.70
2022-11-23T10:07:40.844Z,8.70
2022-11-23T10:10:20.883Z,8.80
2022-11-23T10:12:55.432Z,8.70
2022-11-23T10:15:28.488Z,8.80
2022-11-23T10:18:23.049Z,8.80
2022-11-23T10:20:57.057Z,8.80
2022-11-23T10:23:40.636Z,8.90
2022-11-23T10:26:14.118Z,8.90
2022-11-23T10:28:42.027Z,8.90
2022-11-23T10:31:15.682Z,8.90
2022-11-23T10:33:54.104Z,9.00
2022-11-23T10:36:21.995Z,9.00
2022-11-23T10:38:56.734Z,9.00
2022-11-23T10:41:24.591Z,9.10
2022-11-23T10:43:56.775Z,9.10
2022-11-23T10:46:29.262Z,9.20
2022-11-23T10:49:09.004Z,9.20
2022-11-23T10:51:37.344Z,9.30
2022-11-23T10:54:17.970Z,9.30
2022-11-23T10:56:48.895Z,9.30
2022-11-23T10:59:32.133Z,9.30
2022-11-23T11:02:16.130Z,9.30
2022-11-23T11:04:44.283Z,9.40
2022-11-23T11:07:21.129Z,9.40
2022-11-23T11:09:55.724Z,9.40
2022-11-23T11:12:23.698Z,9.40
2022-11-23T11:15:10.829Z,9.50
2022-11-23T11:17:39.970Z,9.50
2022-11-23T11:20:31.442Z,9.50
2022-11-23T11:23:01.699Z,9.50
2022-11-23T11:25:35.681Z,9.60
2022-11-23T11:28:04.680Z,9.50
2022-11-23T11:30:45.715Z,9.60
2022-11-23T11:33:19.060Z,9.60
2022-11-23T11:35:50.217Z,9.60
2022-11-23T11:38:25.406Z,9.60
2022-11-23T11:40:55.603Z,9.60
2022-11-23T11:43:36.179Z,9.60
2022-11-23T11:46:30.164Z,9.60
2022-11-23T11:49:05.216Z,9.60
2022-11-23T11:51:37.978Z,9.60
2022-11-23T11:54:14.074Z,9.50
2022-11-23T11:56:45.796Z,9.50
2022-11-23T11:59:19.064Z,9.50
2022-11-23T12:01:57.703Z,9.50
2022-11-23T12:04:32.117Z,9.50
2022-11-23T12:07:06.838Z,9.50
2022-11-23T12:09:40.905Z,9.50
2022-11-23T12:12:16.609Z,9.50
2022-11-23T12:14:46.721Z,9.50
2022-11-23T12:17:34.664Z,9.50
2022-11-23T12:20:12.600Z,9.50
2022-11-23T12:22:49.044Z,9.50
2022-11-23T12:25:25.545Z,9.50
2022-11-23T12:28:07.215Z,9.50
2022-11-23T12:30:43.731Z,9.50
2022-11-23T12:33:32.537Z,9.50
2022-11-23T12:36:23.767Z,9.50
2022-11-23T12:38:56.566Z,9.50
2022-11-23T12:41:30.535Z,9.50
2022-11-23T12:44:41.298Z,9.50
2022-11-23T12:47:16.816Z,9.50
2022-11-23T12:49:52.334Z,9.50
2022-11-23T12:52:33.033Z,9.50
2022-11-23T12:55:19.244Z,9.50
2022-11-23T12:57:53.329Z,9.50
2022-11-23T13:00:23.892Z,9.50
2022-11-23T13:03:31.474Z,9.60
2022-11-23T13:06:18.255Z,9.60
2022-11-23T13:09:21.016Z,9.60
2022-11-23T13:12:07.799Z,9.60
2022-11-23T13:14:44.744Z,9.60
2022-11-23T13:17:33.285Z,9.60
2022-11-23T13:20:26.485Z,9.60
2022-11-23T13:22:56.311Z,9.60
2022-11-23T13:25:26.465Z,9.60
2022-11-23T13:27:59.927Z,9.60
2022-11-23T13:31:07.098Z,9.50
2022-11-23T13:33:38.522Z,9.50
2022-11-23T13:36:15.261Z,9.60
2022-11-23T13:38:47.581Z,9.60
2022-11-23T13:41:51.903Z,9.60
2022-11-23T13:44:22.670Z,9.60
2022-11-23T13:47:06.630Z,9.60
2022-11-23T13:49:41.826Z,9.60
2022-11-23T13:52:35.721Z,9.60
2022-11-23T13:55:20.859Z,9.60
2022-11-23T13:58:37.470Z,9.60
2022-11-23T14:01:05.611Z,9.70
2022-11-23T14:03:51.532Z,9.60
2022-11-23T14:06:46.511Z,9.60
2022-11-23T14:09:21.436Z,9.50
2022-11-23T14:12:16.400Z,9.50
2022-11-23T14:14:55.210Z,9.40
2022-11-23T14:18:14.208Z,9.40
2022-11-23T14:20:58.133Z,9.30
2022-11-23T14:23:49.796Z,9.20
2022-11-23T14:26:27.915Z,9.20
2022-11-23T14:29:13.851Z,9.10
2022-11-23T14:31:52.808Z,9.10
2022-11-23T14:34:31.862Z,9.00
2022-11-23T14:37:09.166Z,9.00
2022-11-23T14:39:59.650Z,8.90
2022-11-23T14:42:30.862Z,8.90
2022-11-23T14:45:04.706Z,8.90
2022-11-23T14:47:33.765Z,8.80
2022-11-23T14:50:01.730Z,8.80
2022-11-23T14:52:32.114Z,8.80
2022-11-23T14:55:05.038Z,8.80
2022-11-23T14:57:41.902Z,8.80
2022-11-23T15:00:26.737Z,8.80
2022-11-23T15:02:56.236Z,8.80
2022-11-23T15:05:28.454Z,8.80
2022-11-23T15:08:01.455Z,8.80
2022-11-23T15:10:38.506Z,8.70
2022-11-23T15:13:19.962Z,8.70
2022-11-23T15:15:48.426Z,8.70
2022-11-23T15:18:28.534Z,8.70
2022-11-23T15:20:58.249Z,8.70
2022-11-23T15:23:30.876Z,8.70
2022-11-23T15:26:04.036Z,8.70
2022-11-23T15:28:36.807Z,8.70
2022-11-23T15:31:28.075Z,8.70
2022-11-23T15:33:59.156Z,8.70
2022-11-23T15:36:31.182Z,8.60
2022-11-23T15:39:01.244Z,8.60
2022-11-23T15:41:31.821Z,8.60
2022-11-23T15:44:01.456Z,8.60
2022-11-23T15:46:35.842Z,8.60
2022-11-23T15:49:05.509Z,8.60
2022-11-23T15:51:39.899Z,8.60
2022-11-23T15:54:16.280Z,8.60
2022-11-23T15:56:48.559Z,8.60
2022-11-23T15:59:31.121Z,8.60
2022-11-23T16:02:00.764Z,8.60
2022-11-23T16:04:31.063Z,8.60
2022-11-23T16:06:59.321Z,8.60
2022-11-23T16:09:55.414Z,8.60
2022-11-23T16:12:31.245Z,8.60
2022-11-23T16:15:22.514Z,8.60
2022-11-23T16:17:50.371Z,8.60
2022-11-23T16:20:25.722Z,8.60
2022-11-23T16:22:54.829Z,8.60
2022-11-23T16:25:27.702Z,8.60
2022-11-23T16:28:00.538Z,8.60
2022-11-23T16:30:36.772Z,8.60
2022-11-23T16:33:05.042Z,8.60
2022-11-23T16:35:33.213Z,8.60
2022-11-23T16:38:01.096Z,8.60
2022-11-23T16:40:28.951Z,8.60
2022-11-23T16:42:57.053Z,8.60
2022-11-23T16:45:26.699Z,8.60
2022-11-23T16:47:56.389Z,8.60
2022-11-23T16:50:24.912Z,8.60
2022-11-23T16:52:53.268Z,8.70
2022-11-23T16:55:21.153Z,8.70
2022-11-23T16:57:49.874Z,8.70
2022-11-23T17:00:21.425Z,8.70
2022-11-23T17:02:50.694Z,8.70
2022-11-23T17:05:20.707Z,8.70
2022-11-23T17:07:48.699Z,8.70
2022-11-23T17:10:17.638Z,8.70
2022-11-23T17:12:50.864Z,8.70
2022-11-23T17:15:20.242Z,8.70
2022-11-23T17:17:48.110Z,8.70
2022-11-23T17:20:18.820Z,8.70
2022-11-23T17:22:51.413Z,8.70
2022-11-23T17:25:19.848Z,8.70
2022-11-23T17:27:48.267Z,8.80
2022-11-23T17:30:21.332Z,8.70
2022-11-23T17:32:49.646Z,8.80
2022-11-23T17:35:19.071Z,8.80
2022-11-23T17:37:47.409Z,8.80
2022-11-23T17:40:16.637Z,8.80
2022-11-23T17:42:44.804Z,8.80
2022-11-23T17:45:13.143Z,8.80
2022-11-23T17:47:43.396Z,8.80
2022-11-23T17:50:13.749Z,8.80
2022-11-23T17:52:44.987Z,8.80
2022-11-23T17:55:14.070Z,8.90
2022-11-23T17:57:42.325Z,8.90
2022-11-23T18:00:17.676Z,8.80
2022-11-23T18:02:46.006Z,8.80
2022-11-23T18:05:19.512Z,8.80
2022-11-23T18:07:51.115Z,8.80
2022-11-23T18:10:19.379Z,8.80
2022-11-23T18:12:47.568Z,8.90
2022-11-23T18:15:15.820Z,8.80
2022-11-23T18:17:43.790Z,8.80
2022-11-23T18:20:13.319Z,8.90
2022-11-23T18:22:41.287Z,8.90
2022-11-23T18:25:11.254Z,8.90
2022-11-23T18:27:39.104Z,8.90
2022-11-23T18:30:08.350Z,8.90
2022-11-23T18:32:36.463Z,8.90
2022-11-23T18:35:05.168Z,8.90
2022-11-23T18:37:33.122Z,8.90
2022-11-23T18:40:01.037Z,8.90
2022-11-23T18:42:30.205Z,8.90
2022-11-23T18:44:58.060Z,8.90
2022-11-23T18:47:25.909Z,8.90
2022-11-23T18:49:53.781Z,8.90
2022-11-23T18:52:21.647Z,8.90
2022-11-23T18:54:49.484Z,8.80
2022-11-23T18:57:18.243Z,8.80
2022-11-23T18:59:58.068Z,8.80
2022-11-23T19:02:26.444Z,8.80
2022-11-23T19:04:54.351Z,8.80
2022-11-23T19:07:26.660Z,8.80
2022-11-23T19:09:55.155Z,8.70
2022-11-23T19:12:23.164Z,8.70
2022-11-23T19:14:52.410Z,8.70
2022-11-23T19:17:20.306Z,8.70
2022-11-23T19:19:48.217Z,8.70
2022-11-23T19:22:16.109Z,8.70
2022-11-23T19:24:43.999Z,8.70
2022-11-23T19:27:11.873Z,8.70
2022-11-23T19:29:39.729Z,8.60
2022-11-23T19:32:09.013Z,8.70
2022-11-23T19:34:36.985Z,8.60
2022-11-23T19:37:04.824Z,8.60
2022-11-23T19:39:32.885Z,8.60
2022-11-23T19:42:00.992Z,8.60
2022-11-23T19:44:28.859Z,8.60
2022-11-23T19:46:56.764Z,8.60
2022-11-23T19:49:26.008Z,8.60
2022-11-23T19:51:54.174Z,8.60
2022-11-23T19:54:22.049Z,8.50
2022-11-23T19:56:50.747Z,8.50
2022-11-23T19:59:18.853Z,8.50
2022-11-23T20:01:46.817Z,8.50
2022-11-23T20:04:14.949Z,8.50
2022-11-23T20:06:44.253Z,8.50
2022-11-23T20:09:16.608Z,8.50
2022-11-23T20:11:49.295Z,8.50
2022-11-23T20:14:18.746Z,8.50
2022-11-23T20:16:47.607Z,8.50
2022-11-23T20:19:15.479Z,8.50
2022-11-23T20:21:44.719Z,8.50
2022-11-23T20:24:14.587Z,8.50
2022-11-23T20:26:43.279Z,8.40
2022-11-23T20:29:13.560Z,8.40
2022-11-23T20:31:41.687Z,8.40
2022-11-23T20:34:14.235Z,8.40
2022-11-23T20:36:46.129Z,8.40
2022-11-23T20:39:16.083Z,8.40
2022-11-23T20:41:45.019Z,8.40
2022-11-23T20:44:14.330Z,8.40
2022-11-23T20:47:01.403Z,8.40
2022-11-23T20:49:30.970Z,8.40
2022-11-23T20:52:00.705Z,8.40
2022-11-23T20:54:28.949Z,8.40
2022-11-23T20:56:59.853Z,8.40
2022-11-23T20:59:27.860Z,8.30
2022-11-23T21:01:55.906Z,8.30
2022-11-23T21:04:24.074Z,8.30
2022-11-23T21:06:51.983Z,8.20
2022-11-23T21:09:21.339Z,8.20
2022-11-23T21:12:15.051Z,8.20
2022-11-23T21:14:42.924Z,8.20
2022-11-23T21:17:10.895Z,8.20
2022-11-23T21:19:40.804Z,8.20
2022-11-23T21:22:10.263Z,8.20
2022-11-23T21:24:39.870Z,8.20
2022-11-23T21:27:09.369Z,8.30
2022-11-23T21:29:37.252Z,8.30
2022-11-23T21:32:05.893Z,8.40
2022-11-23T21:34:34.217Z,8.40
2022-11-23T21:37:02.502Z,8.40
2022-11-23T21:39:33.279Z,8.40
2022-11-23T21:42:03.365Z,8.30
2022-11-23T21:44:31.584Z,8.30
2022-11-23T21:46:59.751Z,8.30
2022-11-23T21:49:28.357Z,8.30
2022-11-23T21:51:56.233Z,8.30
2022-11-23T21:54:24.176Z,8.30
2022-11-23T21:56:52.116Z,8.20
2022-11-23T21:59:22.159Z,8.20
2022-11-23T22:01:50.266Z,8.20
2022-11-23T22:04:19.168Z,8.20
2022-11-23T22:06:47.113Z,8.20
2022-11-23T22:09:15.108Z,8.20
2022-11-23T22:11:44.615Z,8.20
2022-11-23T22:14:13.811Z,8.10
2022-11-23T22:16:44.480Z,8.10
2022-11-23T22:19:13.810Z,8.10
2022-11-23T22:21:43.308Z,8.10
2022-11-23T22:24:13.659Z,8.20
2022-11-23T22:26:41.823Z,8.20
2022-11-23T22:29:10.688Z,8.20
2022-11-23T22:31:39.063Z,8.20
2022-11-23T22:34:11.120Z,8.20
2022-11-23T22:36:39.363Z,8.20
2022-11-23T22:39:08.246Z,8.30
2022-11-23T22:41:37.816Z,8.30
2022-11-23T22:44:07.848Z,8.30
2022-11-23T22:46:36.583Z,8.30
2022-11-23T22:49:04.912Z,8.30
2022-11-23T22:51:34.714Z,8.40
2022-11-23T22:54:03.162Z,8.40
2022-11-23T22:56:31.773Z,8.30
2022-11-23T22:59:00.235Z,8.30
2022-11-23T23:01:30.397Z,8.30
2022-11-23T23:04:01.275Z,8.30
2022-11-23T23:06:33.503Z,8.30
2022-11-23T23:09:04.794Z,8.30
2022-11-23T23:11:34.320Z,8.30
2022-11-23T23:14:02.491Z,8.30
2022-11-23T23:16:30.789Z,8.30
2022-11-23T23:18:59.470Z,8.30
2022-11-23T23:21:29.078Z,8.30
2022-11-23T23:23:59.092Z,8.30
2022-11-23T23:26:29.214Z,8.30
2022-11-23T23:28:58.148Z,8.30
2022-11-23T23:31:26.886Z,8.30
2022-11-23T23:33:54.884Z,8.30
2022-11-23T23:36:24.372Z,8.30
2022-11-23T23:38:52.739Z,8.40
2022-11-23T23:41:20.844Z,8.40
2022-11-23T23:43:50.216Z,8.40
2022-11-23T23:46:18.842Z,8.40
2022-11-23T23:48:46.972Z,8.40
2022-11-23T23:51:16.942Z,8.40
2022-11-23T23:53:45.795Z,8.50
2022-11-23T23:56:15.685Z,8.50
2022-11-23T23:58:44.217Z,8.50
